Terminal Aerodrome Forecast
Issued by NWS

Home | Current Version | Previous Version | Text Only | Print | Product List | Glossary On
Versions: 1 2 3 4 5 6 7 8 9 10 11 12 13
000
FTUS42 TJSJ 271800 AAA
TAFJMZ
TAF AMD
TJMZ 271859Z 2719/2818 22008KT P6SM VCSH SCT030
      TEMPO 2719/2721 3SM TSRA SCT020CB BKN030
     FM272100 11006KT P6SM FEW040
     FM281530 27010KT P6SM SCT025 BKN040
      AMD NOT SKED 2723/2811=

USA.gov is the U.S. government's official web portal to all federal, state and local government web resources and services.